sensor_id;sensor_type;location;lat;lon;timestamp;temperature;humidity
27870;DHT22;15225;50.730;4.244;2022-12-24T16:29:09;10.20;90.60
27870;DHT22;15225;50.730;4.244;2022-12-24T16:31:43;10.20;92.40
27870;DHT22;15225;50.730;4.244;2022-12-24T16:34:12;10.50;93.80
27870;DHT22;15225;50.730;4.244;2022-12-24T16:36:45;10.90;92.20
27870;DHT22;15225;50.730;4.244;2022-12-24T16:39:19;11.40;80.30
27870;DHT22;15225;50.730;4.244;2022-12-24T16:41:48;12.00;58.40
27870;DHT22;15225;50.730;4.244;2022-12-24T16:44:32;12.40;33.70
27870;DHT22;15225;50.730;4.244;2022-12-24T16:46:59;12.70;20.80
27870;DHT22;15225;50.730;4.244;2022-12-24T16:49:26;12.90;9.20
27870;DHT22;15225;50.730;4.244;2022-12-24T16:51:52;13.10;1.00
27870;DHT22;15225;50.730;4.244;2022-12-24T16:54:17;13.10;1.00
27870;DHT22;15225;50.730;4.244;2022-12-24T16:56:44;13.10;1.00
27870;DHT22;15225;50.730;4.244;2022-12-24T16:59:22;13.10;1.00
27870;DHT22;15225;50.730;4.244;2022-12-24T17:01:48;13.20;1.00
27870;DHT22;15225;50.730;4.244;2022-12-24T17:04:15;13.30;1.00
27870;DHT22;15225;50.730;4.244;2022-12-24T17:06:42;13.40;1.00
27870;DHT22;15225;50.730;4.244;2022-12-24T17:09:08;13.40;1.00
27870;DHT22;15225;50.730;4.244;2022-12-24T17:11:35;13.40;1.00
27870;DHT22;15225;50.730;4.244;2022-12-24T17:14:00;13.50;1.00
27870;DHT22;15225;50.730;4.244;2022-12-24T17:16:26;13.50;1.00
27870;DHT22;15225;50.730;4.244;2022-12-24T17:18:52;13.50;1.00
27870;DHT22;15225;50.730;4.244;2022-12-24T17:21:18;13.50;1.00
27870;DHT22;15225;50.730;4.244;2022-12-24T17:23:44;13.40;1.00
27870;DHT22;15225;50.730;4.244;2022-12-24T17:26:10;13.40;1.00
27870;DHT22;15225;50.730;4.244;2022-12-24T17:28:37;13.40;1.00
27870;DHT22;15225;50.730;4.244;2022-12-24T17:31:11;13.40;99.90
27870;DHT22;15225;50.730;4.244;2022-12-24T17:33:37;13.50;99.90
27870;DHT22;15225;50.730;4.244;2022-12-24T17:36:03;13.40;99.90
27870;DHT22;15225;50.730;4.244;2022-12-24T17:38:29;13.30;99.90
27870;DHT22;15225;50.730;4.244;2022-12-24T17:41:06;13.30;99.90
27870;DHT22;15225;50.730;4.244;2022-12-24T17:43:33;13.10;99.90
27870;DHT22;15225;50.730;4.244;2022-12-24T17:46:05;13.00;1.00
27870;DHT22;15225;50.730;4.244;2022-12-24T17:48:31;12.90;1.00
27870;DHT22;15225;50.730;4.244;2022-12-24T17:51:01;12.90;1.00
27870;DHT22;15225;50.730;4.244;2022-12-24T17:53:27;12.90;1.00
27870;DHT22;15225;50.730;4.244;2022-12-24T17:55:54;13.00;1.00
27870;DHT22;15225;50.730;4.244;2022-12-24T17:58:20;12.90;1.00
27870;DHT22;15225;50.730;4.244;2022-12-24T18:00:47;13.00;1.00
27870;DHT22;15225;50.730;4.244;2022-12-24T18:03:13;13.00;1.00
27870;DHT22;15225;50.730;4.244;2022-12-24T18:05:39;13.20;99.90
27870;DHT22;15225;50.730;4.244;2022-12-24T18:08:05;13.20;99.90
27870;DHT22;15225;50.730;4.244;2022-12-24T18:10:30;13.10;1.00
27870;DHT22;15225;50.730;4.244;2022-12-24T18:12:56;13.20;1.00
27870;DHT22;15225;50.730;4.244;2022-12-24T18:15:22;13.20;99.90
27870;DHT22;15225;50.730;4.244;2022-12-24T18:17:51;13.20;99.90
27870;DHT22;15225;50.730;4.244;2022-12-24T18:20:18;13.20;99.90
27870;DHT22;15225;50.730;4.244;2022-12-24T18:22:44;13.20;1.00
27870;DHT22;15225;50.730;4.244;2022-12-24T18:25:10;13.30;99.90
27870;DHT22;15225;50.730;4.244;2022-12-24T18:27:36;13.20;99.90
27870;DHT22;15225;50.730;4.244;2022-12-24T18:30:01;13.10;99.90
27870;DHT22;15225;50.730;4.244;2022-12-24T18:32:27;13.10;99.90
27870;DHT22;15225;50.730;4.244;2022-12-24T18:34:53;13.10;99.90
27870;DHT22;15225;50.730;4.244;2022-12-24T18:37:18;13.20;99.90
27870;DHT22;15225;50.730;4.244;2022-12-24T18:39:44;13.20;99.90
27870;DHT22;15225;50.730;4.244;2022-12-24T18:42:10;13.10;99.90
27870;DHT22;15225;50.730;4.244;2022-12-24T18:44:40;13.10;99.90
27870;DHT22;15225;50.730;4.244;2022-12-24T18:47:05;13.20;99.90
27870;DHT22;15225;50.730;4.244;2022-12-24T18:49:31;13.30;99.90
27870;DHT22;15225;50.730;4.244;2022-12-24T18:51:57;13.20;99.90
27870;DHT22;15225;50.730;4.244;2022-12-24T18:54:23;13.10;1.00
27870;DHT22;15225;50.730;4.244;2022-12-24T18:56:51;13.00;99.90
27870;DHT22;15225;50.730;4.244;2022-12-24T18:59:17;13.20;1.00
27870;DHT22;15225;50.730;4.244;2022-12-24T19:01:43;13.10;99.90
27870;DHT22;15225;50.730;4.244;2022-12-24T19:04:09;13.20;99.90
27870;DHT22;15225;50.730;4.244;2022-12-24T19:06:35;13.10;99.90
27870;DHT22;15225;50.730;4.244;2022-12-24T19:09:01;13.00;1.00
27870;DHT22;15225;50.730;4.244;2022-12-24T19:11:30;13.10;1.00
27870;DHT22;15225;50.730;4.244;2022-12-24T19:13:56;13.20;99.90
27870;DHT22;15225;50.730;4.244;2022-12-24T19:16:22;13.00;1.00
27870;DHT22;15225;50.730;4.244;2022-12-24T19:18:48;13.10;1.00
27870;DHT22;15225;50.730;4.244;2022-12-24T19:21:15;13.10;1.00
27870;DHT22;15225;50.730;4.244;2022-12-24T19:23:42;13.10;99.90
27870;DHT22;15225;50.730;4.244;2022-12-24T19:26:12;13.00;1.00
27870;DHT22;15225;50.730;4.244;2022-12-24T19:28:38;13.10;1.00
27870;DHT22;15225;50.730;4.244;2022-12-24T19:31:10;13.10;1.00
27870;DHT22;15225;50.730;4.244;2022-12-24T19:33:37;13.10;1.00
27870;DHT22;15225;50.730;4.244;2022-12-24T19:36:08;13.20;99.90
27870;DHT22;15225;50.730;4.244;2022-12-24T19:38:35;13.20;99.90
27870;DHT22;15225;50.730;4.244;2022-12-24T19:41:09;13.30;99.90
27870;DHT22;15225;50.730;4.244;2022-12-24T19:43:38;13.20;99.90
27870;DHT22;15225;50.730;4.244;2022-12-24T19:46:08;13.10;99.90
27870;DHT22;15225;50.730;4.244;2022-12-24T19:48:35;13.00;99.90
27870;DHT22;15225;50.730;4.244;2022-12-24T19:51:07;12.90;1.00
27870;DHT22;15225;50.730;4.244;2022-12-24T19:53:33;12.90;1.00
27870;DHT22;15225;50.730;4.244;2022-12-24T19:55:59;12.80;1.00
27870;DHT22;15225;50.730;4.244;2022-12-24T19:58:26;12.80;1.00
27870;DHT22;15225;50.730;4.244;2022-12-24T20:00:52;12.90;1.00
27870;DHT22;15225;50.730;4.244;2022-12-24T20:03:19;12.90;1.00
27870;DHT22;15225;50.730;4.244;2022-12-24T20:05:44;13.00;1.00
27870;DHT22;15225;50.730;4.244;2022-12-24T20:08:10;13.10;99.90
27870;DHT22;15225;50.730;4.244;2022-12-24T20:10:40;13.00;1.00
27870;DHT22;15225;50.730;4.244;2022-12-24T20:13:06;13.00;1.00
27870;DHT22;15225;50.730;4.244;2022-12-24T20:15:40;13.00;1.00
27870;DHT22;15225;50.730;4.244;2022-12-24T20:18:06;13.00;99.90
27870;DHT22;15225;50.730;4.244;2022-12-24T20:20:33;13.00;1.00
27870;DHT22;15225;50.730;4.244;2022-12-24T20:22:58;13.10;99.90
27870;DHT22;15225;50.730;4.244;2022-12-24T20:25:24;13.20;99.90
27870;DHT22;15225;50.730;4.244;2022-12-24T20:27:50;13.20;99.90
27870;DHT22;15225;50.730;4.244;2022-12-24T20:30:15;13.30;99.90
27870;DHT22;15225;50.730;4.244;2022-12-24T20:32:41;13.20;99.90
27870;DHT22;15225;50.730;4.244;2022-12-24T20:35:07;13.20;99.90
27870;DHT22;15225;50.730;4.244;2022-12-24T20:37:33;13.30;99.90
27870;DHT22;15225;50.730;4.244;2022-12-24T20:39:58;13.20;99.90
27870;DHT22;15225;50.730;4.244;2022-12-24T20:42:24;13.20;1.00
27870;DHT22;15225;50.730;4.244;2022-12-24T20:44:50;13.10;99.90
27870;DHT22;15225;50.730;4.244;2022-12-24T20:47:15;13.20;1.00
27870;DHT22;15225;50.730;4.244;2022-12-24T20:49:41;13.30;99.90
27870;DHT22;15225;50.730;4.244;2022-12-24T20:52:08;13.30;1.00
27870;DHT22;15225;50.730;4.244;2022-12-24T20:54:33;13.40;99.90
27870;DHT22;15225;50.730;4.244;2022-12-24T20:56:59;13.40;99.90
27870;DHT22;15225;50.730;4.244;2022-12-24T20:59:25;13.60;99.90
27870;DHT22;15225;50.730;4.244;2022-12-24T21:01:51;13.60;99.90
27870;DHT22;15225;50.730;4.244;2022-12-24T21:04:17;13.70;99.90
27870;DHT22;15225;50.730;4.244;2022-12-24T21:06:44;13.80;99.90
27870;DHT22;15225;50.730;4.244;2022-12-24T21:09:10;13.90;99.90
27870;DHT22;15225;50.730;4.244;2022-12-24T21:11:36;13.90;99.90
27870;DHT22;15225;50.730;4.244;2022-12-24T21:14:25;13.80;99.90
27870;DHT22;15225;50.730;4.244;2022-12-24T21:16:52;13.70;99.90
27870;DHT22;15225;50.730;4.244;2022-12-24T21:19:22;13.80;99.90
27870;DHT22;15225;50.730;4.244;2022-12-24T21:21:48;13.80;99.90
27870;DHT22;15225;50.730;4.244;2022-12-24T21:24:15;13.80;99.90
27870;DHT22;15225;50.730;4.244;2022-12-24T21:26:41;13.80;99.90
27870;DHT22;15225;50.730;4.244;2022-12-24T21:29:07;13.90;99.90
27870;DHT22;15225;50.730;4.244;2022-12-24T21:31:34;14.00;99.90
27870;DHT22;15225;50.730;4.244;2022-12-24T21:34:00;13.90;99.90
27870;DHT22;15225;50.730;4.244;2022-12-24T21:36:26;13.90;99.90
27870;DHT22;15225;50.730;4.244;2022-12-24T21:38:55;13.80;99.90
27870;DHT22;15225;50.730;4.244;2022-12-24T21:41:21;13.80;99.90
27870;DHT22;15225;50.730;4.244;2022-12-24T21:43:50;13.90;99.90
27870;DHT22;15225;50.730;4.244;2022-12-24T21:46:19;14.00;99.90
27870;DHT22;15225;50.730;4.244;2022-12-24T21:48:51;14.10;99.90
27870;DHT22;15225;50.730;4.244;2022-12-24T21:51:37;14.10;99.90
27870;DHT22;15225;50.730;4.244;2022-12-24T21:54:05;14.10;99.90
27870;DHT22;15225;50.730;4.244;2022-12-24T21:57:00;14.10;99.90
27870;DHT22;15225;50.730;4.244;2022-12-24T21:59:47;14.10;99.90
27870;DHT22;15225;50.730;4.244;2022-12-24T22:02:14;13.90;99.90
27870;DHT22;15225;50.730;4.244;2022-12-24T22:04:40;14.00;99.90
27870;DHT22;15225;50.730;4.244;2022-12-24T22:07:06;13.90;99.90
27870;DHT22;15225;50.730;4.244;2022-12-24T22:09:51;14.00;99.90
27870;DHT22;15225;50.730;4.244;2022-12-24T22:12:35;13.90;99.90
27870;DHT22;15225;50.730;4.244;2022-12-24T22:15:03;13.90;99.90
27870;DHT22;15225;50.730;4.244;2022-12-24T22:17:29;13.80;99.90
27870;DHT22;15225;50.730;4.244;2022-12-24T22:19:56;13.80;99.90
27870;DHT22;15225;50.730;4.244;2022-12-24T22:22:22;13.60;1.00
27870;DHT22;15225;50.730;4.244;2022-12-24T22:24:48;13.60;1.00
27870;DHT22;15225;50.730;4.244;2022-12-24T22:27:13;13.50;1.00
27870;DHT22;15225;50.730;4.244;2022-12-24T22:29:39;13.50;1.00
